sensor_id;sensor_type;location;lat;lon;timestamp;P1;durP1;ratioP1;P2;durP2;ratioP2
77076;SDS011;66003;52.286;104.306;2023-03-07T00:00:51;6.68;;;5.60;;
77076;SDS011;66003;52.286;104.306;2023-03-07T00:03:17;9.48;;;6.15;;
77076;SDS011;66003;52.286;104.306;2023-03-07T00:05:45;13.20;;;7.85;;
77076;SDS011;66003;52.286;104.306;2023-03-07T00:08:11;13.63;;;6.40;;
77076;SDS011;66003;52.286;104.306;2023-03-07T00:10:37;12.20;;;6.78;;
77076;SDS011;66003;52.286;104.306;2023-03-07T00:13:03;16.27;;;8.15;;
77076;SDS011;66003;52.286;104.306;2023-03-07T00:15:30;11.43;;;7.00;;
77076;SDS011;66003;52.286;104.306;2023-03-07T00:17:56;12.23;;;7.85;;
77076;SDS011;66003;52.286;104.306;2023-03-07T00:20:22;12.55;;;6.88;;
77076;SDS011;66003;52.286;104.306;2023-03-07T00:22:48;13.07;;;7.53;;
77076;SDS011;66003;52.286;104.306;2023-03-07T00:25:14;12.57;;;8.30;;
77076;SDS011;66003;52.286;104.306;2023-03-07T00:27:41;12.85;;;6.72;;
77076;SDS011;66003;52.286;104.306;2023-03-07T00:30:07;12.38;;;6.55;;
77076;SDS011;66003;52.286;104.306;2023-03-07T00:32:36;12.27;;;7.95;;
77076;SDS011;66003;52.286;104.306;2023-03-07T00:35:03;11.77;;;7.45;;
77076;SDS011;66003;52.286;104.306;2023-03-07T00:37:29;15.15;;;7.80;;
77076;SDS011;66003;52.286;104.306;2023-03-07T00:39:55;11.65;;;7.07;;
77076;SDS011;66003;52.286;104.306;2023-03-07T00:42:21;7.50;;;5.13;;
77076;SDS011;66003;52.286;104.306;2023-03-07T00:44:47;4.38;;;3.65;;
77076;SDS011;66003;52.286;104.306;2023-03-07T00:47:13;6.68;;;4.57;;
77076;SDS011;66003;52.286;104.306;2023-03-07T00:49:39;4.55;;;3.95;;
77076;SDS011;66003;52.286;104.306;2023-03-07T00:52:05;4.75;;;3.90;;
77076;SDS011;66003;52.286;104.306;2023-03-07T00:54:32;7.10;;;4.68;;
77076;SDS011;66003;52.286;104.306;2023-03-07T00:56:58;5.90;;;4.63;;
77076;SDS011;66003;52.286;104.306;2023-03-07T00:59:24;5.35;;;3.45;;
77076;SDS011;66003;52.286;104.306;2023-03-07T01:01:50;7.00;;;4.03;;
77076;SDS011;66003;52.286;104.306;2023-03-07T01:04:16;10.18;;;4.95;;
77076;SDS011;66003;52.286;104.306;2023-03-07T01:06:42;9.60;;;4.65;;
77076;SDS011;66003;52.286;104.306;2023-03-07T01:09:09;7.85;;;4.53;;
77076;SDS011;66003;52.286;104.306;2023-03-07T01:11:35;5.68;;;5.07;;
77076;SDS011;66003;52.286;104.306;2023-03-07T01:14:03;8.38;;;5.53;;
77076;SDS011;66003;52.286;104.306;2023-03-07T01:16:31;6.32;;;4.28;;
77076;SDS011;66003;52.286;104.306;2023-03-07T01:19:00;3.25;;;2.30;;
77076;SDS011;66003;52.286;104.306;2023-03-07T01:23:59;4.13;;;1.63;;
77076;SDS011;66003;52.286;104.306;2023-03-07T01:26:26;5.05;;;3.78;;
77076;SDS011;66003;52.286;104.306;2023-03-07T01:28:55;3.72;;;2.85;;
77076;SDS011;66003;52.286;104.306;2023-03-07T01:31:24;3.78;;;3.45;;
77076;SDS011;66003;52.286;104.306;2023-03-07T01:33:51;5.88;;;4.85;;
77076;SDS011;66003;52.286;104.306;2023-03-07T01:36:22;5.70;;;4.13;;
77076;SDS011;66003;52.286;104.306;2023-03-07T01:38:53;6.75;;;4.00;;
77076;SDS011;66003;52.286;104.306;2023-03-07T01:41:20;7.40;;;4.78;;
77076;SDS011;66003;52.286;104.306;2023-03-07T01:43:47;4.72;;;3.20;;
77076;SDS011;66003;52.286;104.306;2023-03-07T01:48:46;4.75;;;3.65;;
77076;SDS011;66003;52.286;104.306;2023-03-07T01:51:15;5.10;;;3.92;;
77076;SDS011;66003;52.286;104.306;2023-03-07T01:53:43;5.75;;;3.88;;
77076;SDS011;66003;52.286;104.306;2023-03-07T01:56:10;5.90;;;2.13;;
77076;SDS011;66003;52.286;104.306;2023-03-07T01:58:37;4.72;;;3.38;;
77076;SDS011;66003;52.286;104.306;2023-03-07T02:01:05;4.32;;;3.78;;
77076;SDS011;66003;52.286;104.306;2023-03-07T02:03:56;3.65;;;2.90;;
77076;SDS011;66003;52.286;104.306;2023-03-07T02:06:27;3.97;;;2.80;;
77076;SDS011;66003;52.286;104.306;2023-03-07T02:08:56;3.95;;;3.30;;
77076;SDS011;66003;52.286;104.306;2023-03-07T02:11:25;4.63;;;3.20;;
77076;SDS011;66003;52.286;104.306;2023-03-07T02:13:51;4.55;;;4.07;;
77076;SDS011;66003;52.286;104.306;2023-03-07T02:16:17;3.90;;;3.15;;
77076;SDS011;66003;52.286;104.306;2023-03-07T02:18:45;5.70;;;3.40;;
77076;SDS011;66003;52.286;104.306;2023-03-07T02:21:56;4.38;;;3.08;;
77076;SDS011;66003;52.286;104.306;2023-03-07T02:24:47;6.93;;;3.97;;
77076;SDS011;66003;52.286;104.306;2023-03-07T02:27:21;7.65;;;3.80;;
77076;SDS011;66003;52.286;104.306;2023-03-07T02:29:50;6.82;;;4.35;;
77076;SDS011;66003;52.286;104.306;2023-03-07T02:32:17;5.13;;;4.15;;
77076;SDS011;66003;52.286;104.306;2023-03-07T02:37:10;6.90;;;3.88;;
77076;SDS011;66003;52.286;104.306;2023-03-07T02:39:41;7.20;;;4.80;;
77076;SDS011;66003;52.286;104.306;2023-03-07T02:42:10;6.20;;;4.93;;
77076;SDS011;66003;52.286;104.306;2023-03-07T02:44:58;5.30;;;3.65;;
77076;SDS011;66003;52.286;104.306;2023-03-07T02:47:26;5.93;;;3.92;;
77076;SDS011;66003;52.286;104.306;2023-03-07T02:49:53;4.85;;;3.33;;
77076;SDS011;66003;52.286;104.306;2023-03-07T02:54:46;5.00;;;3.25;;
77076;SDS011;66003;52.286;104.306;2023-03-07T02:57:13;2.85;;;2.25;;
77076;SDS011;66003;52.286;104.306;2023-03-07T02:59:40;5.43;;;4.43;;
77076;SDS011;66003;52.286;104.306;2023-03-07T03:02:06;4.55;;;3.28;;
77076;SDS011;66003;52.286;104.306;2023-03-07T03:04:32;4.65;;;3.65;;
77076;SDS011;66003;52.286;104.306;2023-03-07T03:06:58;4.15;;;3.72;;
77076;SDS011;66003;52.286;104.306;2023-03-07T03:09:30;2.97;;;2.67;;
77076;SDS011;66003;52.286;104.306;2023-03-07T03:11:56;3.63;;;2.95;;
77076;SDS011;66003;52.286;104.306;2023-03-07T03:14:24;2.47;;;1.75;;
77076;SDS011;66003;52.286;104.306;2023-03-07T03:16:51;3.33;;;2.53;;
77076;SDS011;66003;52.286;104.306;2023-03-07T03:19:19;3.05;;;1.00;;
77076;SDS011;66003;52.286;104.306;2023-03-07T03:21:45;2.05;;;1.85;;
77076;SDS011;66003;52.286;104.306;2023-03-07T03:24:11;5.40;;;1.10;;
77076;SDS011;66003;52.286;104.306;2023-03-07T03:26:37;3.33;;;2.47;;
77076;SDS011;66003;52.286;104.306;2023-03-07T03:29:04;3.47;;;2.17;;
77076;SDS011;66003;52.286;104.306;2023-03-07T03:34:23;3.13;;;2.47;;
77076;SDS011;66003;52.286;104.306;2023-03-07T03:36:49;2.90;;;2.08;;
77076;SDS011;66003;52.286;104.306;2023-03-07T03:39:16;4.13;;;3.08;;
77076;SDS011;66003;52.286;104.306;2023-03-07T03:41:42;2.33;;;2.10;;
77076;SDS011;66003;52.286;104.306;2023-03-07T03:44:09;2.63;;;1.73;;
77076;SDS011;66003;52.286;104.306;2023-03-07T03:46:35;2.67;;;2.17;;
77076;SDS011;66003;52.286;104.306;2023-03-07T03:49:02;2.20;;;1.17;;
77076;SDS011;66003;52.286;104.306;2023-03-07T03:51:28;2.55;;;2.15;;
77076;SDS011;66003;52.286;104.306;2023-03-07T03:53:55;4.47;;;3.03;;
77076;SDS011;66003;52.286;104.306;2023-03-07T03:56:24;3.60;;;3.40;;
77076;SDS011;66003;52.286;104.306;2023-03-07T03:58:51;4.40;;;4.03;;
77076;SDS011;66003;52.286;104.306;2023-03-07T04:01:21;1.98;;;1.88;;
77076;SDS011;66003;52.286;104.306;2023-03-07T04:03:49;1.55;;;1.45;;
77076;SDS011;66003;52.286;104.306;2023-03-07T04:06:18;3.67;;;2.95;;
77076;SDS011;66003;52.286;104.306;2023-03-07T04:08:46;2.28;;;1.92;;
77076;SDS011;66003;52.286;104.306;2023-03-07T04:11:12;2.78;;;2.58;;
77076;SDS011;66003;52.286;104.306;2023-03-07T04:13:38;3.13;;;1.02;;
77076;SDS011;66003;52.286;104.306;2023-03-07T04:16:05;4.95;;;2.58;;
77076;SDS011;66003;52.286;104.306;2023-03-07T04:18:32;4.22;;;1.30;;
77076;SDS011;66003;52.286;104.306;2023-03-07T04:20:59;4.05;;;2.30;;
77076;SDS011;66003;52.286;104.306;2023-03-07T04:23:26;2.97;;;2.78;;
77076;SDS011;66003;52.286;104.306;2023-03-07T04:25:54;2.55;;;2.40;;
77076;SDS011;66003;52.286;104.306;2023-03-07T04:28:22;3.25;;;2.03;;
77076;SDS011;66003;52.286;104.306;2023-03-07T04:30:49;3.40;;;3.10;;
77076;SDS011;66003;52.286;104.306;2023-03-07T04:33:16;3.30;;;3.03;;
77076;SDS011;66003;52.286;104.306;2023-03-07T04:35:43;3.38;;;2.53;;
77076;SDS011;66003;52.286;104.306;2023-03-07T04:38:13;2.70;;;2.50;;
77076;SDS011;66003;52.286;104.306;2023-03-07T04:40:40;1.73;;;1.55;;
77076;SDS011;66003;52.286;104.306;2023-03-07T04:43:06;2.90;;;2.50;;
77076;SDS011;66003;52.286;104.306;2023-03-07T04:45:33;2.33;;;2.05;;
77076;SDS011;66003;52.286;104.306;2023-03-07T04:48:01;1.55;;;0.40;;
77076;SDS011;66003;52.286;104.306;2023-03-07T04:50:28;3.40;;;3.13;;
77076;SDS011;66003;52.286;104.306;2023-03-07T04:52:54;2.85;;;2.65;;
77076;SDS011;66003;52.286;104.306;2023-03-07T04:55:20;2.20;;;1.63;;
77076;SDS011;66003;52.286;104.306;2023-03-07T04:57:46;2.08;;;1.88;;
77076;SDS011;66003;52.286;104.306;2023-03-07T05:00:13;2.58;;;2.47;;
77076;SDS011;66003;52.286;104.306;2023-03-07T05:02:40;4.10;;;2.40;;
77076;SDS011;66003;52.286;104.306;2023-03-07T05:05:06;3.97;;;3.40;;
77076;SDS011;66003;52.286;104.306;2023-03-07T05:07:32;3.55;;;2.30;;
77076;SDS011;66003;52.286;104.306;2023-03-07T05:09:58;2.53;;;1.98;;
77076;SDS011;66003;52.286;104.306;2023-03-07T05:12:25;2.78;;;2.58;;
77076;SDS011;66003;52.286;104.306;2023-03-07T05:14:51;2.58;;;2.47;;
77076;SDS011;66003;52.286;104.306;2023-03-07T05:17:18;2.92;;;2.83;;
77076;SDS011;66003;52.286;104.306;2023-03-07T05:19:44;1.55;;;1.45;;
77076;SDS011;66003;52.286;104.306;2023-03-07T05:22:10;3.50;;;3.20;;
77076;SDS011;66003;52.286;104.306;2023-03-07T05:24:36;2.17;;;1.83;;
77076;SDS011;66003;52.286;104.306;2023-03-07T05:27:02;2.03;;;1.92;;
77076;SDS011;66003;52.286;104.306;2023-03-07T05:29:29;1.45;;;1.35;;
77076;SDS011;66003;52.286;104.306;2023-03-07T05:31:55;2.30;;;2.20;;
77076;SDS011;66003;52.286;104.306;2023-03-07T05:34:23;2.42;;;2.13;;
77076;SDS011;66003;52.286;104.306;2023-03-07T05:36:49;2.40;;;2.20;;
77076;SDS011;66003;52.286;104.306;2023-03-07T05:39:15;2.58;;;2.45;;
77076;SDS011;66003;52.286;104.306;2023-03-07T05:41:41;1.80;;;1.70;;
77076;SDS011;66003;52.286;104.306;2023-03-07T05:44:07;2.03;;;1.80;;
77076;SDS011;66003;52.286;104.306;2023-03-07T05:46:33;2.33;;;2.13;;
77076;SDS011;66003;52.286;104.306;2023-03-07T05:48:59;1.80;;;1.70;;
77076;SDS011;66003;52.286;104.306;2023-03-07T05:51:35;0.63;;;0.55;;
77076;SDS011;66003;52.286;104.306;2023-03-07T05:54:04;1.85;;;1.75;;
77076;SDS011;66003;52.286;104.306;2023-03-07T05:56:31;1.75;;;1.65;;
77076;SDS011;66003;52.286;104.306;2023-03-07T05:58:57;1.52;;;0.50;;
77076;SDS011;66003;52.286;104.306;2023-03-07T06:01:23;1.42;;;0.50;;
77076;SDS011;66003;52.286;104.306;2023-03-07T06:03:50;3.40;;;1.73;;
77076;SDS011;66003;52.286;104.306;2023-03-07T06:06:16;1.85;;;1.75;;
77076;SDS011;66003;52.286;104.306;2023-03-07T06:08:42;1.92;;;1.83;;
77076;SDS011;66003;52.286;104.306;2023-03-07T06:11:08;1.92;;;1.75;;
77076;SDS011;66003;52.286;104.306;2023-03-07T06:16:01;2.30;;;2.10;;
77076;SDS011;66003;52.286;104.306;2023-03-07T06:18:27;1.80;;;0.40;;
77076;SDS011;66003;52.286;104.306;2023-03-07T06:20:57;1.98;;;1.88;;
77076;SDS011;66003;52.286;104.306;2023-03-07T06:23:26;3.42;;;3.33;;
77076;SDS011;66003;52.286;104.306;2023-03-07T06:25:54;1.85;;;1.83;;
77076;SDS011;66003;52.286;104.306;2023-03-07T06:28:20;2.28;;;2.10;;
77076;SDS011;66003;52.286;104.306;2023-03-07T06:30:47;1.63;;;1.52;;
77076;SDS011;66003;52.286;104.306;2023-03-07T06:33:13;1.30;;;1.30;;
77076;SDS011;66003;52.286;104.306;2023-03-07T06:35:39;1.13;;;0.70;;
77076;SDS011;66003;52.286;104.306;2023-03-07T06:38:08;1.33;;;0.45;;
77076;SDS011;66003;52.286;104.306;2023-03-07T06:40:35;2.28;;;2.17;;
77076;SDS011;66003;52.286;104.306;2023-03-07T06:43:02;2.67;;;1.60;;
77076;SDS011;66003;52.286;104.306;2023-03-07T06:45:29;2.20;;;1.98;;
77076;SDS011;66003;52.286;104.306;2023-03-07T06:47:55;1.67;;;1.58;;
77076;SDS011;66003;52.286;104.306;2023-03-07T06:50:22;2.03;;;1.85;;
77076;SDS011;66003;52.286;104.306;2023-03-07T06:52:48;1.77;;;1.67;;
77076;SDS011;66003;52.286;104.306;2023-03-07T06:55:16;2.05;;;1.85;;
77076;SDS011;66003;52.286;104.306;2023-03-07T06:57:43;1.55;;;1.50;;
77076;SDS011;66003;52.286;104.306;2023-03-07T07:00:10;1.42;;;1.33;;
77076;SDS011;66003;52.286;104.306;2023-03-07T07:02:39;2.08;;;1.67;;
77076;SDS011;66003;52.286;104.306;2023-03-07T07:05:05;1.60;;;1.50;;
77076;SDS011;66003;52.286;104.306;2023-03-07T07:07:31;1.67;;;1.58;;
77076;SDS011;66003;52.286;104.306;2023-03-07T07:09:58;1.65;;;1.27;;
77076;SDS011;66003;52.286;104.306;2023-03-07T07:12:25;1.63;;;1.52;;
77076;SDS011;66003;52.286;104.306;2023-03-07T07:14:52;1.58;;;1.48;;
77076;SDS011;66003;52.286;104.306;2023-03-07T07:17:18;3.45;;;1.95;;
77076;SDS011;66003;52.286;104.306;2023-03-07T07:19:44;2.00;;;1.90;;
77076;SDS011;66003;52.286;104.306;2023-03-07T07:22:11;1.83;;;1.25;;
77076;SDS011;66003;52.286;104.306;2023-03-07T07:24:37;2.45;;;1.42;;
77076;SDS011;66003;52.286;104.306;2023-03-07T07:27:04;1.67;;;1.58;;
77076;SDS011;66003;52.286;104.306;2023-03-07T07:29:30;1.85;;;1.75;;
77076;SDS011;66003;52.286;104.306;2023-03-07T07:31:57;2.45;;;2.20;;
77076;SDS011;66003;52.286;104.306;2023-03-07T07:34:23;1.45;;;1.35;;
77076;SDS011;66003;52.286;104.306;2023-03-07T07:36:49;3.33;;;1.63;;
77076;SDS011;66003;52.286;104.306;2023-03-07T07:39:17;2.85;;;2.75;;
77076;SDS011;66003;52.286;104.306;2023-03-07T07:41:44;2.25;;;1.40;;
77076;SDS011;66003;52.286;104.306;2023-03-07T07:44:12;1.85;;;1.48;;
77076;SDS011;66003;52.286;104.306;2023-03-07T07:46:38;1.83;;;1.73;;
77076;SDS011;66003;52.286;104.306;2023-03-07T07:49:04;1.95;;;1.50;;
77076;SDS011;66003;52.286;104.306;2023-03-07T07:51:30;2.25;;;2.05;;
77076;SDS011;66003;52.286;104.306;2023-03-07T07:53:58;1.63;;;1.52;;
77076;SDS011;66003;52.286;104.306;2023-03-07T07:56:24;1.98;;;1.85;;
77076;SDS011;66003;52.286;104.306;2023-03-07T08:01:21;1.73;;;1.63;;
77076;SDS011;66003;52.286;104.306;2023-03-07T08:03:49;2.58;;;2.33;;
77076;SDS011;66003;52.286;104.306;2023-03-07T08:06:20;1.75;;;1.58;;
77076;SDS011;66003;52.286;104.306;2023-03-07T08:08:48;2.22;;;2.13;;
77076;SDS011;66003;52.286;104.306;2023-03-07T08:11:14;1.70;;;1.60;;
77076;SDS011;66003;52.286;104.306;2023-03-07T08:13:41;2.20;;;2.10;;
77076;SDS011;66003;52.286;104.306;2023-03-07T08:16:14;2.53;;;2.33;;
77076;SDS011;66003;52.286;104.306;2023-03-07T08:18:42;2.63;;;1.80;;
77076;SDS011;66003;52.286;104.306;2023-03-07T08:21:16;2.05;;;1.77;;
77076;SDS011;66003;52.286;104.306;2023-03-07T08:23:42;2.50;;;1.88;;
77076;SDS011;66003;52.286;104.306;2023-03-07T08:26:08;1.92;;;1.83;;
77076;SDS011;66003;52.286;104.306;2023-03-07T08:28:37;1.83;;;1.73;;
77076;SDS011;66003;52.286;104.306;2023-03-07T08:31:08;2.45;;;2.25;;
77076;SDS011;66003;52.286;104.306;2023-03-07T08:33:37;2.53;;;2.00;;
77076;SDS011;66003;52.286;104.306;2023-03-07T08:36:04;2.55;;;1.85;;
77076;SDS011;66003;52.286;104.306;2023-03-07T08:38:31;1.88;;;1.75;;
77076;SDS011;66003;52.286;104.306;2023-03-07T08:41:04;1.58;;;0.73;;
77076;SDS011;66003;52.286;104.306;2023-03-07T08:43:32;1.95;;;1.67;;
77076;SDS011;66003;52.286;104.306;2023-03-07T08:46:01;2.53;;;1.98;;
77076;SDS011;66003;52.286;104.306;2023-03-07T08:48:28;3.78;;;2.05;;
77076;SDS011;66003;52.286;104.306;2023-03-07T08:50:54;2.58;;;2.38;;
77076;SDS011;66003;52.286;104.306;2023-03-07T08:53:20;0.70;;;0.60;;
77076;SDS011;66003;52.286;104.306;2023-03-07T08:55:47;2.10;;;2.00;;
77076;SDS011;66003;52.286;104.306;2023-03-07T08:58:14;1.85;;;1.75;;
77076;SDS011;66003;52.286;104.306;2023-03-07T09:00:40;1.63;;;1.52;;
77076;SDS011;66003;52.286;104.306;2023-03-07T09:03:06;2.92;;;1.90;;
77076;SDS011;66003;52.286;104.306;2023-03-07T09:05:35;2.38;;;2.28;;
77076;SDS011;66003;52.286;104.306;2023-03-07T09:08:05;2.03;;;1.52;;
77076;SDS011;66003;52.286;104.306;2023-03-07T09:10:32;2.13;;;1.92;;
77076;SDS011;66003;52.286;104.306;2023-03-07T09:12:59;3.58;;;1.90;;
77076;SDS011;66003;52.286;104.306;2023-03-07T09:15:25;1.55;;;1.48;;
77076;SDS011;66003;52.286;104.306;2023-03-07T09:17:52;2.15;;;2.00;;
77076;SDS011;66003;52.286;104.306;2023-03-07T09:20:18;2.97;;;2.78;;
77076;SDS011;66003;52.286;104.306;2023-03-07T09:22:44;1.95;;;1.85;;
77076;SDS011;66003;52.286;104.306;2023-03-07T09:25:16;1.75;;;1.65;;
77076;SDS011;66003;52.286;104.306;2023-03-07T09:27:42;3.00;;;2.47;;
77076;SDS011;66003;52.286;104.306;2023-03-07T09:30:10;3.85;;;2.33;;
77076;SDS011;66003;52.286;104.306;2023-03-07T09:32:38;2.47;;;2.08;;
77076;SDS011;66003;52.286;104.306;2023-03-07T09:35:04;2.30;;;2.10;;
77076;SDS011;66003;52.286;104.306;2023-03-07T09:37:31;1.92;;;1.83;;
77076;SDS011;66003;52.286;104.306;2023-03-07T09:39:57;2.38;;;1.80;;
77076;SDS011;66003;52.286;104.306;2023-03-07T09:42:28;2.55;;;2.30;;
77076;SDS011;66003;52.286;104.306;2023-03-07T09:45:18;3.20;;;2.38;;
77076;SDS011;66003;52.286;104.306;2023-03-07T09:48:23;1.67;;;1.42;;
77076;SDS011;66003;52.286;104.306;2023-03-07T09:53:45;3.00;;;2.70;;
77076;SDS011;66003;52.286;104.306;2023-03-07T09:56:37;2.35;;;2.15;;
77076;SDS011;66003;52.286;104.306;2023-03-07T09:59:19;2.58;;;1.80;;
77076;SDS011;66003;52.286;104.306;2023-03-07T10:02:35;2.10;;;0.90;;
77076;SDS011;66003;52.286;104.306;2023-03-07T10:07:13;1.88;;;1.77;;
77076;SDS011;66003;52.286;104.306;2023-03-07T10:09:42;2.10;;;1.65;;
77076;SDS011;66003;52.286;104.306;2023-03-07T10:12:24;2.60;;;2.38;;
77076;SDS011;66003;52.286;104.306;2023-03-07T10:15:15;3.10;;;2.60;;
77076;SDS011;66003;52.286;104.306;2023-03-07T10:25:50;2.95;;;2.75;;
77076;SDS011;66003;52.286;104.306;2023-03-07T10:28:23;3.42;;;2.00;;
77076;SDS011;66003;52.286;104.306;2023-03-07T10:31:38;3.00;;;2.10;;
77076;SDS011;66003;52.286;104.306;2023-03-07T10:33:47;3.28;;;3.08;;
77076;SDS011;66003;52.286;104.306;2023-03-07T10:36:19;2.95;;;2.75;;
77076;SDS011;66003;52.286;104.306;2023-03-07T10:38:59;2.35;;;2.15;;
77076;SDS011;66003;52.286;104.306;2023-03-07T10:41:27;3.00;;;2.40;;
77076;SDS011;66003;52.286;104.306;2023-03-07T10:43:53;3.58;;;2.95;;
77076;SDS011;66003;52.286;104.306;2023-03-07T10:46:21;4.10;;;1.38;;
77076;SDS011;66003;52.286;104.306;2023-03-07T10:48:52;6.78;;;4.55;;
77076;SDS011;66003;52.286;104.306;2023-03-07T10:54:23;4.75;;;2.85;;
77076;SDS011;66003;52.286;104.306;2023-03-07T10:57:08;4.28;;;3.05;;
77076;SDS011;66003;52.286;104.306;2023-03-07T10:59:41;4.13;;;2.53;;
77076;SDS011;66003;52.286;104.306;2023-03-07T11:04:53;3.63;;;2.38;;
77076;SDS011;66003;52.286;104.306;2023-03-07T11:07:29;9.80;;;5.20;;
77076;SDS011;66003;52.286;104.306;2023-03-07T11:10:23;2.50;;;2.30;;
77076;SDS011;66003;52.286;104.306;2023-03-07T11:12:50;3.17;;;2.60;;
77076;SDS011;66003;52.286;104.306;2023-03-07T11:15:20;3.97;;;3.03;;
77076;SDS011;66003;52.286;104.306;2023-03-07T11:17:49;7.43;;;3.63;;
77076;SDS011;66003;52.286;104.306;2023-03-07T11:20:18;4.20;;;1.73;;
77076;SDS011;66003;52.286;104.306;2023-03-07T11:25:56;2.60;;;2.40;;
77076;SDS011;66003;52.286;104.306;2023-03-07T11:28:39;4.18;;;2.50;;
77076;SDS011;66003;52.286;104.306;2023-03-07T11:36:31;2.85;;;2.65;;
77076;SDS011;66003;52.286;104.306;2023-03-07T11:41:54;2.45;;;2.25;;
77076;SDS011;66003;52.286;104.306;2023-03-07T11:44:35;0.82;;;0.40;;
77076;SDS011;66003;52.286;104.306;2023-03-07T11:50:29;2.00;;;1.73;;
77076;SDS011;66003;52.286;104.306;2023-03-07T12:15:26;2.10;;;2.00;;
77076;SDS011;66003;52.286;104.306;2023-03-07T12:24:07;1.92;;;1.83;;
77076;SDS011;66003;52.286;104.306;2023-03-07T12:26:59;2.30;;;2.10;;
77076;SDS011;66003;52.286;104.306;2023-03-07T12:32:02;2.65;;;2.53;;
77076;SDS011;66003;52.286;104.306;2023-03-07T12:34:35;2.03;;;1.92;;
77076;SDS011;66003;52.286;104.306;2023-03-07T12:37:10;2.95;;;2.72;;
77076;SDS011;66003;52.286;104.306;2023-03-07T12:39:51;4.00;;;2.60;;
77076;SDS011;66003;52.286;104.306;2023-03-07T12:47:43;2.55;;;1.92;;
77076;SDS011;66003;52.286;104.306;2023-03-07T12:50:16;1.65;;;1.55;;
77076;SDS011;66003;52.286;104.306;2023-03-07T12:56:01;2.40;;;2.20;;
77076;SDS011;66003;52.286;104.306;2023-03-07T13:01:19;2.95;;;1.90;;
77076;SDS011;66003;52.286;104.306;2023-03-07T13:04:01;1.88;;;1.77;;
77076;SDS011;66003;52.286;104.306;2023-03-07T13:06:33;2.80;;;2.60;;
77076;SDS011;66003;52.286;104.306;2023-03-07T13:09:04;3.33;;;2.90;;
77076;SDS011;66003;52.286;104.306;2023-03-07T13:11:31;2.63;;;2.10;;
77076;SDS011;66003;52.286;104.306;2023-03-07T13:14:08;2.03;;;1.58;;
77076;SDS011;66003;52.286;104.306;2023-03-07T13:16:55;2.13;;;2.03;;
77076;SDS011;66003;52.286;104.306;2023-03-07T13:22:03;2.50;;;2.28;;
77076;SDS011;66003;52.286;104.306;2023-03-07T13:24:41;2.63;;;2.17;;
77076;SDS011;66003;52.286;104.306;2023-03-07T13:43:02;4.72;;;2.70;;
77076;SDS011;66003;52.286;104.306;2023-03-07T13:48:03;4.53;;;4.25;;
77076;SDS011;66003;52.286;104.306;2023-03-07T13:53:00;0.60;;;0.50;;
77076;SDS011;66003;52.286;104.306;2023-03-07T13:55:29;4.47;;;2.35;;
77076;SDS011;66003;52.286;104.306;2023-03-07T13:58:17;1.00;;;0.60;;
77076;SDS011;66003;52.286;104.306;2023-03-07T14:00:58;2.65;;;2.53;;
77076;SDS011;66003;52.286;104.306;2023-03-07T14:03:39;2.95;;;1.90;;
77076;SDS011;66003;52.286;104.306;2023-03-07T14:06:46;2.03;;;1.73;;
77076;SDS011;66003;52.286;104.306;2023-03-07T14:09:06;2.40;;;2.20;;
77076;SDS011;66003;52.286;104.306;2023-03-07T14:17:43;2.95;;;2.20;;
77076;SDS011;66003;52.286;104.306;2023-03-07T14:29:14;2.13;;;1.95;;
77076;SDS011;66003;52.286;104.306;2023-03-07T14:31:49;2.15;;;1.85;;
77076;SDS011;66003;52.286;104.306;2023-03-07T14:36:56;3.67;;;3.47;;
77076;SDS011;66003;52.286;104.306;2023-03-07T14:42:23;2.28;;;2.05;;
77076;SDS011;66003;52.286;104.306;2023-03-07T14:45:18;3.20;;;3.00;;
77076;SDS011;66003;52.286;104.306;2023-03-07T14:48:08;2.03;;;0.63;;
77076;SDS011;66003;52.286;104.306;2023-03-07T14:50:48;2.33;;;1.98;;
77076;SDS011;66003;52.286;104.306;2023-03-07T14:55:46;1.90;;;1.77;;
77076;SDS011;66003;52.286;104.306;2023-03-07T14:58:21;2.53;;;1.40;;
77076;SDS011;66003;52.286;104.306;2023-03-07T15:00:58;3.72;;;2.85;;
77076;SDS011;66003;52.286;104.306;2023-03-07T15:03:26;2.97;;;2.78;;
77076;SDS011;66003;52.286;104.306;2023-03-07T15:05:58;3.72;;;3.42;;
77076;SDS011;66003;52.286;104.306;2023-03-07T15:10:59;2.30;;;2.10;;
77076;SDS011;66003;52.286;104.306;2023-03-07T15:13:30;3.65;;;3.35;;
77076;SDS011;66003;52.286;104.306;2023-03-07T15:16:04;3.80;;;2.65;;
77076;SDS011;66003;52.286;104.306;2023-03-07T15:18:46;3.90;;;3.25;;
77076;SDS011;66003;52.286;104.306;2023-03-07T15:21:20;2.45;;;2.35;;
77076;SDS011;66003;52.286;104.306;2023-03-07T15:23:54;2.97;;;2.78;;
77076;SDS011;66003;52.286;104.306;2023-03-07T15:26:23;3.75;;;3.28;;
77076;SDS011;66003;52.286;104.306;2023-03-07T15:29:01;5.00;;;4.53;;
77076;SDS011;66003;52.286;104.306;2023-03-07T15:35:28;3.08;;;2.88;;
77076;SDS011;66003;52.286;104.306;2023-03-07T15:38:05;4.75;;;4.13;;
77076;SDS011;66003;52.286;104.306;2023-03-07T15:40:39;2.42;;;2.22;;
77076;SDS011;66003;52.286;104.306;2023-03-07T15:46:04;2.80;;;2.60;;
77076;SDS011;66003;52.286;104.306;2023-03-07T15:51:18;2.65;;;2.42;;
77076;SDS011;66003;52.286;104.306;2023-03-07T15:53:59;1.92;;;1.80;;
77076;SDS011;66003;52.286;104.306;2023-03-07T15:56:29;2.42;;;2.22;;
77076;SDS011;66003;52.286;104.306;2023-03-07T15:59:00;4.50;;;3.95;;
77076;SDS011;66003;52.286;104.306;2023-03-07T16:01:31;1.17;;;0.60;;
77076;SDS011;66003;52.286;104.306;2023-03-07T16:03:58;3.10;;;2.80;;
77076;SDS011;66003;52.286;104.306;2023-03-07T16:09:05;4.05;;;3.75;;
77076;SDS011;66003;52.286;104.306;2023-03-07T16:11:36;3.17;;;2.53;;
77076;SDS011;66003;52.286;104.306;2023-03-07T16:14:02;3.00;;;2.67;;
77076;SDS011;66003;52.286;104.306;2023-03-07T16:16:28;3.30;;;3.08;;
77076;SDS011;66003;52.286;104.306;2023-03-07T16:18:55;1.67;;;1.08;;
77076;SDS011;66003;52.286;104.306;2023-03-07T16:21:22;3.20;;;3.05;;
77076;SDS011;66003;52.286;104.306;2023-03-07T16:23:49;3.80;;;2.55;;
77076;SDS011;66003;52.286;104.306;2023-03-07T16:26:16;3.05;;;2.58;;
77076;SDS011;66003;52.286;104.306;2023-03-07T16:28:48;4.55;;;2.75;;
77076;SDS011;66003;52.286;104.306;2023-03-07T16:31:15;2.20;;;2.10;;
77076;SDS011;66003;52.286;104.306;2023-03-07T16:33:42;2.83;;;2.70;;
77076;SDS011;66003;52.286;104.306;2023-03-07T16:36:09;4.03;;;3.72;;
77076;SDS011;66003;52.286;104.306;2023-03-07T16:38:39;3.53;;;3.22;;
77076;SDS011;66003;52.286;104.306;2023-03-07T16:41:09;3.38;;;2.90;;
77076;SDS011;66003;52.286;104.306;2023-03-07T16:43:44;2.53;;;2.33;;
77076;SDS011;66003;52.286;104.306;2023-03-07T16:46:15;2.35;;;2.13;;
77076;SDS011;66003;52.286;104.306;2023-03-07T16:48:43;3.15;;;2.95;;
77076;SDS011;66003;52.286;104.306;2023-03-07T16:51:14;5.18;;;3.20;;
77076;SDS011;66003;52.286;104.306;2023-03-07T16:53:42;1.58;;;0.55;;
77076;SDS011;66003;52.286;104.306;2023-03-07T16:56:16;3.63;;;3.33;;
77076;SDS011;66003;52.286;104.306;2023-03-07T16:58:48;3.22;;;2.05;;
77076;SDS011;66003;52.286;104.306;2023-03-07T17:01:14;2.30;;;1.05;;
77076;SDS011;66003;52.286;104.306;2023-03-07T17:03:40;2.72;;;2.50;;
77076;SDS011;66003;52.286;104.306;2023-03-07T17:06:10;3.00;;;2.30;;
77076;SDS011;66003;52.286;104.306;2023-03-07T17:08:38;3.28;;;2.97;;
77076;SDS011;66003;52.286;104.306;2023-03-07T17:11:10;3.35;;;3.15;;